createdAt,value
2017-09-06T18:50:09.481Z,66.60
2017-09-06T18:52:37.949Z,66.70
2017-09-06T18:55:06.441Z,65.60
2017-09-06T18:57:34.945Z,65.70
2017-09-06T19:00:03.056Z,64.80
2017-09-06T19:02:31.574Z,64.50
2017-09-06T19:05:00.081Z,63.90
2017-09-06T19:07:28.545Z,63.10
2017-09-06T19:09:57.013Z,62.60
2017-09-06T19:12:25.598Z,62.80
2017-09-06T19:14:54.093Z,61.90
2017-09-06T19:17:22.605Z,61.50
2017-09-06T19:19:51.044Z,61.90
2017-09-06T19:22:19.545Z,61.50
2017-09-06T19:24:48.004Z,60.80
2017-09-06T19:27:16.463Z,60.00
2017-09-06T19:29:44.973Z,59.40
2017-09-06T19:32:13.440Z,59.80
2017-09-06T19:34:41.918Z,59.70
2017-09-06T19:37:10.375Z,59.70
2017-09-06T19:39:38.861Z,59.80
2017-09-06T19:42:07.526Z,59.00
2017-09-06T19:44:36.206Z,58.20
2017-09-06T19:47:04.766Z,57.90
2017-09-06T19:49:33.226Z,57.90
2017-09-06T19:52:01.674Z,58.00
2017-09-06T19:54:30.360Z,57.30
2017-09-06T19:56:58.841Z,58.20
2017-09-06T19:59:27.309Z,58.40
2017-09-06T20:01:55.797Z,59.10
2017-09-06T20:04:24.269Z,59.20
2017-09-06T20:06:52.726Z,59.10
2017-09-06T20:09:21.259Z,59.10
2017-09-06T20:11:49.833Z,59.90
2017-09-06T20:14:18.289Z,60.30
2017-09-06T20:16:46.791Z,59.90
2017-09-06T20:19:15.273Z,59.80
2017-09-06T20:21:43.751Z,60.60
2017-09-06T20:24:12.261Z,60.70
2017-09-06T20:26:40.737Z,60.70
2017-09-06T20:29:09.196Z,60.30
2017-09-06T20:31:37.684Z,59.80
2017-09-06T20:34:06.181Z,59.20
2017-09-06T20:36:34.734Z,59.10
2017-09-06T20:39:03.115Z,59.20
2017-09-06T20:41:31.695Z,58.80
2017-09-06T20:44:00.186Z,58.70
2017-09-06T20:46:28.631Z,58.80
2017-09-06T20:48:57.114Z,59.00
2017-09-06T20:51:25.612Z,59.20
2017-09-06T20:53:54.065Z,59.80
2017-09-06T20:56:22.885Z,59.60
2017-09-06T20:58:51.405Z,59.70
2017-09-06T21:01:19.878Z,59.70
2017-09-06T21:03:48.362Z,61.30
2017-09-06T21:06:16.870Z,61.10
2017-09-06T21:08:45.325Z,60.30
2017-09-06T21:11:13.805Z,61.20
2017-09-06T21:13:42.389Z,60.80
2017-09-06T21:16:10.839Z,60.60
2017-09-06T21:18:39.297Z,59.80
2017-09-06T21:21:07.847Z,59.70
2017-09-06T21:23:36.292Z,59.70
2017-09-06T21:26:04.772Z,60.10
2017-09-06T21:28:33.323Z,59.70
2017-09-06T21:31:01.772Z,60.10
2017-09-06T21:33:30.308Z,60.50
2017-09-06T21:35:58.764Z,60.40
2017-09-06T21:38:27.208Z,60.00
2017-09-06T21:40:55.696Z,60.40
2017-09-06T21:43:24.203Z,61.50
2017-09-06T21:45:52.872Z,61.30
2017-09-06T21:48:21.371Z,60.60
2017-09-06T21:50:49.849Z,60.50
2017-09-06T21:53:18.302Z,60.80
2017-09-06T21:55:46.763Z,60.40
2017-09-06T21:58:15.289Z,60.60
2017-09-06T22:00:43.719Z,60.30
2017-09-06T22:03:11.834Z,60.90
2017-09-06T22:05:40.285Z,60.30
2017-09-06T22:08:08.804Z,60.70
2017-09-06T22:10:37.279Z,61.00
2017-09-06T22:13:05.752Z,60.90
2017-09-06T22:15:34.221Z,61.00
2017-09-06T22:18:02.694Z,61.60
2017-09-06T22:20:31.165Z,60.50
2017-09-06T22:22:59.640Z,60.50
2017-09-06T22:25:28.148Z,60.30
2017-09-06T22:27:56.599Z,60.50
2017-09-06T22:30:25.058Z,60.10
2017-09-06T22:32:53.912Z,60.70
2017-09-06T22:35:22.488Z,60.60
2017-09-06T22:37:50.958Z,61.10
2017-09-06T22:40:19.441Z,61.60
2017-09-06T22:42:50.930Z,61.30
2017-09-06T22:45:19.400Z,61.30
2017-09-06T22:47:47.876Z,61.20
2017-09-06T22:50:16.448Z,61.80
2017-09-06T22:52:45.022Z,61.40
2017-09-06T22:55:13.490Z,61.30
2017-09-06T22:57:41.946Z,62.00
2017-09-06T23:00:10.200Z,61.70
2017-09-06T23:02:38.676Z,61.70
2017-09-06T23:05:07.116Z,61.50
2017-09-06T23:07:35.593Z,62.00
2017-09-06T23:10:04.175Z,63.40
2017-09-06T23:12:32.633Z,62.70
2017-09-06T23:15:01.081Z,62.60
2017-09-06T23:17:29.553Z,62.50
2017-09-06T23:19:58.005Z,62.60
2017-09-06T23:22:26.457Z,63.10
2017-09-06T23:24:54.945Z,63.30
2017-09-06T23:27:23.392Z,63.00
2017-09-06T23:29:51.845Z,63.30
2017-09-06T23:32:20.319Z,63.10
2017-09-06T23:34:48.876Z,63.50
2017-09-06T23:37:17.336Z,64.30
2017-09-06T23:39:45.812Z,64.20
2017-09-06T23:42:14.266Z,64.00
2017-09-06T23:44:42.744Z,64.80
2017-09-06T23:47:11.239Z,65.80
2017-09-06T23:49:39.698Z,66.50
2017-09-06T23:52:08.126Z,67.20
2017-09-06T23:54:36.621Z,67.30
2017-09-06T23:57:05.051Z,67.20
2017-09-06T23:59:34.259Z,66.70
